sensor_id;sensor_type;location;lat;lon;timestamp;pressure;altitude;pressure_sealevel;temperature;humidity
74893;BME280;63446;56.272;43.922;2024-02-15T00:01:04;103213.94;;;-17.22;54.66
74893;BME280;63446;56.272;43.922;2024-02-15T00:03:31;103213.16;;;-17.26;54.66
74893;BME280;63446;56.272;43.922;2024-02-15T00:05:57;103221.63;;;-17.28;54.76
74893;BME280;63446;56.272;43.922;2024-02-15T00:08:23;103226.72;;;-17.31;54.77
74893;BME280;63446;56.272;43.922;2024-02-15T00:10:52;103219.19;;;-17.36;54.77
74893;BME280;63446;56.272;43.922;2024-02-15T00:13:19;103223.44;;;-17.41;54.99
74893;BME280;63446;56.272;43.922;2024-02-15T00:15:45;103239.50;;;-17.43;54.92
74893;BME280;63446;56.272;43.922;2024-02-15T00:18:16;103238.63;;;-17.41;54.87
74893;BME280;63446;56.272;43.922;2024-02-15T00:20:41;103242.00;;;-17.40;54.72
74893;BME280;63446;56.272;43.922;2024-02-15T00:23:08;103243.66;;;-17.41;54.74
74893;BME280;63446;56.272;43.922;2024-02-15T00:25:34;103244.53;;;-17.40;54.66
74893;BME280;63446;56.272;43.922;2024-02-15T00:28:00;103240.34;;;-17.43;54.82
74893;BME280;63446;56.272;43.922;2024-02-15T00:30:28;103233.59;;;-17.42;54.74
74893;BME280;63446;56.272;43.922;2024-02-15T00:32:55;103244.56;;;-17.45;54.80
74893;BME280;63446;56.272;43.922;2024-02-15T00:35:21;103242.09;;;-17.48;55.05
74893;BME280;63446;56.272;43.922;2024-02-15T00:37:47;103247.94;;;-17.46;54.91
74893;BME280;63446;56.272;43.922;2024-02-15T00:40:15;103240.38;;;-17.46;54.84
74893;BME280;63446;56.272;43.922;2024-02-15T00:42:41;103253.88;;;-17.47;54.81
74893;BME280;63446;56.272;43.922;2024-02-15T00:45:07;103241.19;;;-17.45;54.66
74893;BME280;63446;56.272;43.922;2024-02-15T00:47:36;103240.38;;;-17.46;54.77
74893;BME280;63446;56.272;43.922;2024-02-15T00:50:04;103232.78;;;-17.46;54.77
74893;BME280;63446;56.272;43.922;2024-02-15T00:52:31;103246.25;;;-17.44;54.61
74893;BME280;63446;56.272;43.922;2024-02-15T00:54:56;103244.56;;;-17.43;54.74
74893;BME280;63446;56.272;43.922;2024-02-15T00:57:22;103242.06;;;-17.46;54.70
74893;BME280;63446;56.272;43.922;2024-02-15T00:59:48;103241.22;;;-17.49;54.74
74893;BME280;63446;56.272;43.922;2024-02-15T01:02:15;103242.09;;;-17.48;54.70
74893;BME280;63446;56.272;43.922;2024-02-15T01:04:41;103252.22;;;-17.53;54.72
74893;BME280;63446;56.272;43.922;2024-02-15T01:07:08;103251.47;;;-17.59;54.76
74893;BME280;63446;56.272;43.922;2024-02-15T01:09:35;103249.75;;;-17.57;54.60
74893;BME280;63446;56.272;43.922;2024-02-15T01:12:00;103243.13;;;-17.66;54.92
74893;BME280;63446;56.272;43.922;2024-02-15T01:14:29;103258.31;;;-17.67;54.85
74893;BME280;63446;56.272;43.922;2024-02-15T01:16:56;103256.59;;;-17.67;54.83
74893;BME280;63446;56.272;43.922;2024-02-15T01:19:22;103252.41;;;-17.69;54.80
74893;BME280;63446;56.272;43.922;2024-02-15T01:21:48;103252.44;;;-17.71;54.74
74893;BME280;63446;56.272;43.922;2024-02-15T01:24:14;103250.81;;;-17.77;54.83
74893;BME280;63446;56.272;43.922;2024-02-15T01:26:40;103255.91;;;-17.80;54.82
74893;BME280;63446;56.272;43.922;2024-02-15T01:29:05;103255.06;;;-17.80;54.78
74893;BME280;63446;56.272;43.922;2024-02-15T01:31:32;103255.94;;;-17.81;54.73
74893;BME280;63446;56.272;43.922;2024-02-15T01:33:58;103257.63;;;-17.82;54.80
74893;BME280;63446;56.272;43.922;2024-02-15T01:36:24;103250.91;;;-17.83;54.78
74893;BME280;63446;56.272;43.922;2024-02-15T01:38:50;103252.59;;;-17.85;54.73
74893;BME280;63446;56.272;43.922;2024-02-15T01:41:16;103250.94;;;-17.86;54.66
74893;BME280;63446;56.272;43.922;2024-02-15T01:43:45;103253.44;;;-17.84;54.67
74893;BME280;63446;56.272;43.922;2024-02-15T01:46:11;103255.16;;;-17.86;54.77
74893;BME280;63446;56.272;43.922;2024-02-15T01:48:39;103250.97;;;-17.90;54.87
74893;BME280;63446;56.272;43.922;2024-02-15T01:51:07;103249.25;;;-17.88;54.75
74893;BME280;63446;56.272;43.922;2024-02-15T01:53:33;103256.03;;;-17.92;54.67
74893;BME280;63446;56.272;43.922;2024-02-15T01:55:59;103265.31;;;-17.94;54.73
74893;BME280;63446;56.272;43.922;2024-02-15T01:58:26;103263.69;;;-17.98;54.78
74893;BME280;63446;56.272;43.922;2024-02-15T02:00:56;103267.06;;;-18.01;54.78
74893;BME280;63446;56.272;43.922;2024-02-15T02:03:22;103267.09;;;-18.05;54.83
74893;BME280;63446;56.272;43.922;2024-02-15T02:05:49;103268.81;;;-18.10;54.87
74893;BME280;63446;56.272;43.922;2024-02-15T02:08:16;103277.25;;;-18.10;54.86
74893;BME280;63446;56.272;43.922;2024-02-15T02:10:43;103286.56;;;-18.19;54.96
74893;BME280;63446;56.272;43.922;2024-02-15T02:13:09;103279.84;;;-18.20;54.96
74893;BME280;63446;56.272;43.922;2024-02-15T02:15:37;103278.97;;;-18.18;54.83
74893;BME280;63446;56.272;43.922;2024-02-15T02:18:04;103269.72;;;-18.17;54.86
74893;BME280;63446;56.272;43.922;2024-02-15T02:20:36;103287.41;;;-18.20;54.95
74893;BME280;63446;56.272;43.922;2024-02-15T02:25:38;103284.03;;;-18.19;54.80
74893;BME280;63446;56.272;43.922;2024-02-15T02:28:05;103279.81;;;-18.19;54.92
74893;BME280;63446;56.272;43.922;2024-02-15T02:30:32;103273.09;;;-18.17;54.75
74893;BME280;63446;56.272;43.922;2024-02-15T02:32:58;103264.66;;;-18.16;54.76
74893;BME280;63446;56.272;43.922;2024-02-15T02:35:25;103270.56;;;-18.18;54.78
74893;BME280;63446;56.272;43.922;2024-02-15T02:37:51;103269.69;;;-18.14;54.77
74893;BME280;63446;56.272;43.922;2024-02-15T02:40:21;103273.09;;;-18.18;54.87
74893;BME280;63446;56.272;43.922;2024-02-15T02:45:19;103283.19;;;-18.17;54.82
74893;BME280;63446;56.272;43.922;2024-02-15T02:47:46;103283.16;;;-18.15;54.63
74893;BME280;63446;56.272;43.922;2024-02-15T02:50:15;103283.16;;;-18.12;54.52
74893;BME280;63446;56.272;43.922;2024-02-15T02:52:41;103291.56;;;-18.15;54.64
74893;BME280;63446;56.272;43.922;2024-02-15T02:55:07;103291.59;;;-18.16;54.63
74893;BME280;63446;56.272;43.922;2024-02-15T02:57:38;103300.00;;;-18.19;54.60
74893;BME280;63446;56.272;43.922;2024-02-15T03:00:06;103292.47;;;-18.20;54.62
74893;BME280;63446;56.272;43.922;2024-02-15T03:02:39;103307.66;;;-18.30;54.69
74893;BME280;63446;56.272;43.922;2024-02-15T03:05:06;103297.56;;;-18.30;54.61
74893;BME280;63446;56.272;43.922;2024-02-15T03:07:35;103318.63;;;-18.32;54.49
74893;BME280;63446;56.272;43.922;2024-02-15T03:10:03;103316.19;;;-18.46;54.68
74893;BME280;63446;56.272;43.922;2024-02-15T03:12:37;103332.16;;;-18.44;54.73
74893;BME280;63446;56.272;43.922;2024-02-15T03:15:04;103343.94;;;-18.49;54.63
74893;BME280;63446;56.272;43.922;2024-02-15T03:17:30;103341.44;;;-18.51;54.70
74893;BME280;63446;56.272;43.922;2024-02-15T03:19:59;103336.41;;;-18.51;54.73
74893;BME280;63446;56.272;43.922;2024-02-15T03:22:25;103341.47;;;-18.52;54.85
74893;BME280;63446;56.272;43.922;2024-02-15T03:24:51;103353.25;;;-18.56;54.74
74893;BME280;63446;56.272;43.922;2024-02-15T03:27:18;103354.94;;;-18.55;54.74
74893;BME280;63446;56.272;43.922;2024-02-15T03:29:49;103357.44;;;-18.56;54.59
74893;BME280;63446;56.272;43.922;2024-02-15T03:32:15;103351.56;;;-18.58;54.55
74893;BME280;63446;56.272;43.922;2024-02-15T03:34:43;103357.47;;;-18.62;54.48
74893;BME280;63446;56.272;43.922;2024-02-15T03:37:08;103355.81;;;-18.66;54.76
74893;BME280;63446;56.272;43.922;2024-02-15T03:39:36;103365.06;;;-18.65;54.73
74893;BME280;63446;56.272;43.922;2024-02-15T03:42:03;103360.91;;;-18.73;54.82
74893;BME280;63446;56.272;43.922;2024-02-15T03:44:29;103358.41;;;-18.74;54.91
74893;BME280;63446;56.272;43.922;2024-02-15T03:46:56;103354.22;;;-18.78;54.77
74893;BME280;63446;56.272;43.922;2024-02-15T03:49:22;103367.66;;;-18.78;54.54
74893;BME280;63446;56.272;43.922;2024-02-15T03:51:48;103371.03;;;-18.83;54.75
74893;BME280;63446;56.272;43.922;2024-02-15T03:54:15;103347.53;;;-18.85;54.75
74893;BME280;63446;56.272;43.922;2024-02-15T03:56:48;103355.94;;;-18.85;54.64
74893;BME280;63446;56.272;43.922;2024-02-15T03:59:19;103367.69;;;-18.88;54.71
74893;BME280;63446;56.272;43.922;2024-02-15T04:01:53;103367.69;;;-18.87;54.78
74893;BME280;63446;56.272;43.922;2024-02-15T04:04:20;103361.00;;;-18.92;54.70
74893;BME280;63446;56.272;43.922;2024-02-15T04:06:51;103372.78;;;-18.96;54.70
74893;BME280;63446;56.272;43.922;2024-02-15T04:09:18;103365.22;;;-18.94;54.68
74893;BME280;63446;56.272;43.922;2024-02-15T04:11:49;103362.72;;;-18.98;54.68
74893;BME280;63446;56.272;43.922;2024-02-15T04:14:19;103358.50;;;-19.02;54.73
74893;BME280;63446;56.272;43.922;2024-02-15T04:16:45;103357.66;;;-18.99;54.53
74893;BME280;63446;56.272;43.922;2024-02-15T04:19:11;103354.31;;;-19.04;54.85
74893;BME280;63446;56.272;43.922;2024-02-15T04:21:39;103352.66;;;-19.05;54.70
74893;BME280;63446;56.272;43.922;2024-02-15T04:24:06;103363.53;;;-19.03;54.71
74893;BME280;63446;56.272;43.922;2024-02-15T04:26:32;103366.94;;;-19.06;54.61
74893;BME280;63446;56.272;43.922;2024-02-15T04:28:59;103371.13;;;-19.02;54.73
74893;BME280;63446;56.272;43.922;2024-02-15T04:31:25;103375.31;;;-19.01;54.74
74893;BME280;63446;56.272;43.922;2024-02-15T04:33:56;103378.69;;;-19.05;54.78
74893;BME280;63446;56.272;43.922;2024-02-15T04:36:22;103378.66;;;-18.97;54.52
74893;BME280;63446;56.272;43.922;2024-02-15T04:38:52;103376.97;;;-18.95;54.69
74893;BME280;63446;56.272;43.922;2024-02-15T04:41:18;103376.09;;;-18.91;54.62
74893;BME280;63446;56.272;43.922;2024-02-15T04:43:50;103382.84;;;-18.90;54.70
74893;BME280;63446;56.272;43.922;2024-02-15T04:46:17;103376.09;;;-18.88;54.45
74893;BME280;63446;56.272;43.922;2024-02-15T04:48:43;103379.47;;;-18.86;54.62
74893;BME280;63446;56.272;43.922;2024-02-15T04:51:10;103392.09;;;-18.90;54.65
74893;BME280;63446;56.272;43.922;2024-02-15T04:53:37;103379.47;;;-18.87;54.50
74893;BME280;63446;56.272;43.922;2024-02-15T04:56:07;103384.41;;;-18.63;54.48
74893;BME280;63446;56.272;43.922;2024-02-15T04:58:42;103379.88;;;-18.10;55.51
74893;BME280;63446;56.272;43.922;2024-02-15T05:01:13;103379.44;;;-17.52;55.02
74893;BME280;63446;56.272;43.922;2024-02-15T05:03:39;103393.19;;;-16.96;54.83
74893;BME280;63446;56.272;43.922;2024-02-15T05:06:05;103387.59;;;-16.52;53.48
74893;BME280;63446;56.272;43.922;2024-02-15T05:08:30;103386.53;;;-16.35;52.49
74893;BME280;63446;56.272;43.922;2024-02-15T05:10:57;103383.16;;;-16.37;51.70
74893;BME280;63446;56.272;43.922;2024-02-15T05:13:24;103374.81;;;-16.41;51.51
74893;BME280;63446;56.272;43.922;2024-02-15T05:15:50;103383.28;;;-16.43;51.77
74893;BME280;63446;56.272;43.922;2024-02-15T05:18:16;103393.47;;;-16.48;51.44
74893;BME280;63446;56.272;43.922;2024-02-15T05:20:42;103384.13;;;-16.46;51.77
74893;BME280;63446;56.272;43.922;2024-02-15T05:23:08;103396.81;;;-16.44;51.71
74893;BME280;63446;56.272;43.922;2024-02-15T05:25:34;103386.59;;;-16.41;51.48
74893;BME280;63446;56.272;43.922;2024-02-15T05:28:01;103381.44;;;-16.34;51.88
74893;BME280;63446;56.272;43.922;2024-02-15T05:30:27;103390.53;;;-16.19;52.04
74893;BME280;63446;56.272;43.922;2024-02-15T05:32:52;103397.06;;;-16.04;52.20
74893;BME280;63446;56.272;43.922;2024-02-15T05:35:18;103390.13;;;-15.91;51.76
74893;BME280;63446;56.272;43.922;2024-02-15T05:37:44;103394.28;;;-15.86;51.30
74893;BME280;63446;56.272;43.922;2024-02-15T05:40:11;103390.88;;;-15.85;51.21
74893;BME280;63446;56.272;43.922;2024-02-15T05:42:44;103393.44;;;-15.86;50.87
74893;BME280;63446;56.272;43.922;2024-02-15T05:47:52;103401.00;;;-15.85;50.78
74893;BME280;63446;56.272;43.922;2024-02-15T05:50:17;103395.88;;;-15.80;51.02
74893;BME280;63446;56.272;43.922;2024-02-15T05:52:49;103393.22;;;-15.72;51.16
74893;BME280;63446;56.272;43.922;2024-02-15T05:55:14;103414.13;;;-15.61;51.40
74893;BME280;63446;56.272;43.922;2024-02-15T05:57:45;103411.44;;;-15.51;51.20
74893;BME280;63446;56.272;43.922;2024-02-15T06:00:12;103411.22;;;-15.38;51.21
74893;BME280;63446;56.272;43.922;2024-02-15T06:02:38;103406.84;;;-15.30;50.96
74893;BME280;63446;56.272;43.922;2024-02-15T06:05:04;103404.13;;;-15.19;50.98
74893;BME280;63446;56.272;43.922;2024-02-15T06:07:30;103418.34;;;-15.11;50.68
74893;BME280;63446;56.272;43.922;2024-02-15T06:09:59;103405.59;;;-15.06;50.50
74893;BME280;63446;56.272;43.922;2024-02-15T06:12:29;103411.41;;;-15.01;50.38
74893;BME280;63446;56.272;43.922;2024-02-15T06:14:55;103415.59;;;-14.98;50.22
74893;BME280;63446;56.272;43.922;2024-02-15T06:17:21;103412.16;;;-14.96;50.31
74893;BME280;63446;56.272;43.922;2024-02-15T06:19:48;103414.56;;;-14.88;50.24
74893;BME280;63446;56.272;43.922;2024-02-15T06:22:13;103414.31;;;-14.74;50.66
74893;BME280;63446;56.272;43.922;2024-02-15T06:24:40;103424.94;;;-14.57;50.83
74893;BME280;63446;56.272;43.922;2024-02-15T06:27:06;103424.53;;;-14.39;50.67
74893;BME280;63446;56.272;43.922;2024-02-15T06:29:32;103429.25;;;-14.20;50.44
74893;BME280;63446;56.272;43.922;2024-02-15T06:32:18;103424.66;;;-14.05;50.32
74893;BME280;63446;56.272;43.922;2024-02-15T06:35:02;103428.56;;;-13.90;50.32
74893;BME280;63446;56.272;43.922;2024-02-15T06:37:46;103418.16;;;-13.79;50.18
74893;BME280;63446;56.272;43.922;2024-02-15T06:40:30;103423.84;;;-13.68;50.09
74893;BME280;63446;56.272;43.922;2024-02-15T06:42:56;103417.69;;;-13.59;50.08
74893;BME280;63446;56.272;43.922;2024-02-15T06:45:22;103414.97;;;-13.53;49.87
74893;BME280;63446;56.272;43.922;2024-02-15T06:47:48;103414.84;;;-13.47;49.93
74893;BME280;63446;56.272;43.922;2024-02-15T06:50:14;103417.25;;;-13.41;49.82
74893;BME280;63446;56.272;43.922;2024-02-15T06:52:41;103417.91;;;-13.34;49.92
74893;BME280;63446;56.272;43.922;2024-02-15T06:55:07;103420.25;;;-13.25;49.93
74893;BME280;63446;56.272;43.922;2024-02-15T06:57:35;103420.00;;;-13.17;49.68
74893;BME280;63446;56.272;43.922;2024-02-15T07:00:10;103424.06;;;-13.10;49.78
74893;BME280;63446;56.272;43.922;2024-02-15T07:02:41;103429.88;;;-13.05;49.62
74893;BME280;63446;56.272;43.922;2024-02-15T07:05:10;103435.75;;;-13.03;49.28
74893;BME280;63446;56.272;43.922;2024-02-15T07:07:36;103434.97;;;-13.05;49.03
74893;BME280;63446;56.272;43.922;2024-02-15T07:10:05;103434.97;;;-13.05;49.23
74893;BME280;63446;56.272;43.922;2024-02-15T07:12:31;103426.44;;;-13.04;49.24
74893;BME280;63446;56.272;43.922;2024-02-15T07:14:57;103428.97;;;-13.02;49.24
74893;BME280;63446;56.272;43.922;2024-02-15T07:17:23;103445.84;;;-12.98;49.18
74893;BME280;63446;56.272;43.922;2024-02-15T07:19:49;103440.81;;;-13.01;48.91
74893;BME280;63446;56.272;43.922;2024-02-15T07:22:15;103433.31;;;-13.06;48.59
74893;BME280;63446;56.272;43.922;2024-02-15T07:24:42;103432.88;;;-13.22;47.96
74893;BME280;63446;56.272;43.922;2024-02-15T07:27:08;103449.25;;;-13.32;48.07
74893;BME280;63446;56.272;43.922;2024-02-15T07:29:34;103450.41;;;-13.44;48.00
74893;BME280;63446;56.272;43.922;2024-02-15T07:32:04;103437.78;;;-13.48;48.32
74893;BME280;63446;56.272;43.922;2024-02-15T07:34:30;103436.09;;;-13.49;48.50
74893;BME280;63446;56.272;43.922;2024-02-15T07:36:56;103444.59;;;-13.50;48.45
74893;BME280;63446;56.272;43.922;2024-02-15T07:39:24;103449.56;;;-13.44;48.39
74893;BME280;63446;56.272;43.922;2024-02-15T07:41:54;103445.31;;;-13.45;48.01
74893;BME280;63446;56.272;43.922;2024-02-15T07:44:25;103449.56;;;-13.44;48.18
74893;BME280;63446;56.272;43.922;2024-02-15T07:46:55;103452.94;;;-13.44;48.11
74893;BME280;63446;56.272;43.922;2024-02-15T07:49:21;103450.31;;;-13.41;48.09
74893;BME280;63446;56.272;43.922;2024-02-15T07:51:48;103452.75;;;-13.36;48.21
74893;BME280;63446;56.272;43.922;2024-02-15T07:54:19;103455.09;;;-13.28;48.08
74893;BME280;63446;56.272;43.922;2024-02-15T07:56:49;103454.28;;;-13.29;47.29
74893;BME280;63446;56.272;43.922;2024-02-15T07:59:15;103458.66;;;-13.36;47.09
74893;BME280;63446;56.272;43.922;2024-02-15T08:01:42;103459.56;;;-13.38;47.38
74893;BME280;63446;56.272;43.922;2024-02-15T08:04:09;103462.19;;;-13.41;46.98
74893;BME280;63446;56.272;43.922;2024-02-15T08:06:35;103467.31;;;-13.43;47.18
74893;BME280;63446;56.272;43.922;2024-02-15T08:09:03;103481.03;;;-13.48;46.58
74893;BME280;63446;56.272;43.922;2024-02-15T08:11:32;103470.00;;;-13.49;46.89
74893;BME280;63446;56.272;43.922;2024-02-15T08:13:58;103470.00;;;-13.49;46.95
74893;BME280;63446;56.272;43.922;2024-02-15T08:16:25;103456.59;;;-13.56;46.56
74893;BME280;63446;56.272;43.922;2024-02-15T08:18:55;103451.47;;;-13.54;46.67
74893;BME280;63446;56.272;43.922;2024-02-15T08:21:29;103466.03;;;-13.61;46.33
74893;BME280;63446;56.272;43.922;2024-02-15T08:23:59;103464.31;;;-13.59;46.21
74893;BME280;63446;56.272;43.922;2024-02-15T08:26:25;103457.63;;;-13.63;46.52
74893;BME280;63446;56.272;43.922;2024-02-15T08:28:53;103464.53;;;-13.68;46.22
74893;BME280;63446;56.272;43.922;2024-02-15T08:31:21;103455.31;;;-13.73;46.16
74893;BME280;63446;56.272;43.922;2024-02-15T08:33:49;103458.81;;;-13.77;46.14
74893;BME280;63446;56.272;43.922;2024-02-15T08:36:16;103457.25;;;-13.85;45.85
74893;BME280;63446;56.272;43.922;2024-02-15T08:38:42;103472.53;;;-13.85;45.84
74893;BME280;63446;56.272;43.922;2024-02-15T08:41:07;103458.88;;;-13.81;46.14
74893;BME280;63446;56.272;43.922;2024-02-15T08:43:34;103462.16;;;-13.75;46.41
74893;BME280;63446;56.272;43.922;2024-02-15T08:46:00;103455.38;;;-13.76;45.76
74893;BME280;63446;56.272;43.922;2024-02-15T08:48:26;103456.16;;;-13.73;45.89
74893;BME280;63446;56.272;43.922;2024-02-15T08:50:52;103474.72;;;-13.69;45.85
74893;BME280;63446;56.272;43.922;2024-02-15T08:53:19;103448.31;;;-13.64;46.37
74893;BME280;63446;56.272;43.922;2024-02-15T08:55:45;103458.44;;;-13.62;46.17
74893;BME280;63446;56.272;43.922;2024-02-15T08:58:11;103471.94;;;-13.59;46.05
74893;BME280;63446;56.272;43.922;2024-02-15T09:00:37;103456.50;;;-13.51;46.22
74893;BME280;63446;56.272;43.922;2024-02-15T09:03:10;103469.16;;;-13.48;45.98
74893;BME280;63446;56.272;43.922;2024-02-15T09:05:36;103466.44;;;-13.42;46.17
74893;BME280;63446;56.272;43.922;2024-02-15T09:08:02;103459.44;;;-13.34;46.41
74893;BME280;63446;56.272;43.922;2024-02-15T09:10:30;103467.81;;;-13.28;46.14
74893;BME280;63446;56.272;43.922;2024-02-15T09:12:56;103470.19;;;-13.22;46.08
74893;BME280;63446;56.272;43.922;2024-02-15T09:15:21;103466.59;;;-13.14;46.18
74893;BME280;63446;56.272;43.922;2024-02-15T09:17:47;103470.53;;;-13.02;46.38
74893;BME280;63446;56.272;43.922;2024-02-15T09:20:17;103467.66;;;-12.90;46.41
74893;BME280;63446;56.272;43.922;2024-02-15T09:22:51;103480.22;;;-12.84;45.85
74893;BME280;63446;56.272;43.922;2024-02-15T09:25:18;103476.00;;;-12.83;45.57
74893;BME280;63446;56.272;43.922;2024-02-15T09:27:44;103455.63;;;-12.85;45.53
74893;BME280;63446;56.272;43.922;2024-02-15T09:30:11;103467.59;;;-12.87;45.22
74893;BME280;63446;56.272;43.922;2024-02-15T09:32:39;103468.44;;;-12.88;45.34
74893;BME280;63446;56.272;43.922;2024-02-15T09:35:06;103469.31;;;-12.87;45.57
74893;BME280;63446;56.272;43.922;2024-02-15T09:37:45;103463.19;;;-12.82;45.75
74893;BME280;63446;56.272;43.922;2024-02-15T09:40:15;103459.63;;;-12.74;45.61
74893;BME280;63446;56.272;43.922;2024-02-15T09:42:42;103465.47;;;-12.71;45.25
74893;BME280;63446;56.272;43.922;2024-02-15T09:45:12;103451.63;;;-12.62;45.31
74893;BME280;63446;56.272;43.922;2024-02-15T09:47:41;103453.84;;;-12.50;45.64
74893;BME280;63446;56.272;43.922;2024-02-15T09:50:11;103465.31;;;-12.35;45.52
74893;BME280;63446;56.272;43.922;2024-02-15T09:52:42;103443.81;;;-12.25;45.24
74893;BME280;63446;56.272;43.922;2024-02-15T09:55:09;103445.19;;;-12.15;45.10
74893;BME280;63446;56.272;43.922;2024-02-15T09:57:39;103437.88;;;-11.97;45.46
74893;BME280;63446;56.272;43.922;2024-02-15T10:00:09;103438.16;;;-11.80;45.49
74893;BME280;63446;56.272;43.922;2024-02-15T10:02:42;103433.31;;;-11.61;45.47
74893;BME280;63446;56.272;43.922;2024-02-15T10:05:12;103426.84;;;-11.45;45.35
74893;BME280;63446;56.272;43.922;2024-02-15T10:07:39;103437.47;;;-11.32;45.22
74893;BME280;63446;56.272;43.922;2024-02-15T10:10:18;103445.88;;;-11.28;43.71
74893;BME280;63446;56.272;43.922;2024-02-15T10:12:46;103435.56;;;-11.25;44.16
74893;BME280;63446;56.272;43.922;2024-02-15T10:15:36;103418.72;;;-11.31;43.82
74893;BME280;63446;56.272;43.922;2024-02-15T10:18:10;103413.41;;;-11.25;44.49
74893;BME280;63446;56.272;43.922;2024-02-15T10:20:38;103426.03;;;-11.20;43.92
74893;BME280;63446;56.272;43.922;2024-02-15T10:25:35;103419.34;;;-11.24;43.46
74893;BME280;63446;56.272;43.922;2024-02-15T10:28:05;103430.50;;;-11.27;43.60
74893;BME280;63446;56.272;43.922;2024-02-15T10:30:40;103429.81;;;-11.32;43.19
74893;BME280;63446;56.272;43.922;2024-02-15T10:33:09;103423.19;;;-11.38;43.48
74893;BME280;63446;56.272;43.922;2024-02-15T10:35:36;103438.75;;;-11.45;43.04
74893;BME280;63446;56.272;43.922;2024-02-15T10:38:07;103441.19;;;-11.42;43.56
74893;BME280;63446;56.272;43.922;2024-02-15T10:40:33;103436.09;;;-11.42;43.50
74893;BME280;63446;56.272;43.922;2024-02-15T10:42:59;103439.47;;;-11.42;43.72
74893;BME280;63446;56.272;43.922;2024-02-15T10:45:25;103444.31;;;-11.33;43.96
74893;BME280;63446;56.272;43.922;2024-02-15T10:47:51;103438.25;;;-11.30;43.86
74893;BME280;63446;56.272;43.922;2024-02-15T10:50:18;103451.66;;;-11.23;43.96
74893;BME280;63446;56.272;43.922;2024-02-15T10:52:54;103450.47;;;-11.13;44.12
74893;BME280;63446;56.272;43.922;2024-02-15T10:55:42;103452.59;;;-11.01;43.78
74893;BME280;63446;56.272;43.922;2024-02-15T10:58:12;103453.28;;;-10.96;43.71
74893;BME280;63446;56.272;43.922;2024-02-15T11:00:39;103457.28;;;-10.89;43.86
74893;BME280;63446;56.272;43.922;2024-02-15T11:03:08;103446.75;;;-10.79;43.75
74893;BME280;63446;56.272;43.922;2024-02-15T11:05:37;103454.28;;;-10.76;43.10
74893;BME280;63446;56.272;43.922;2024-02-15T11:08:08;103455.63;;;-10.90;41.60
74893;BME280;63446;56.272;43.922;2024-02-15T11:10:35;103452.25;;;-10.90;42.59
74893;BME280;63446;56.272;43.922;2024-02-15T11:13:04;103450.72;;;-10.96;42.86
74893;BME280;63446;56.272;43.922;2024-02-15T11:15:45;103457.06;;;-11.08;41.37
74893;BME280;63446;56.272;43.922;2024-02-15T11:18:46;103466.22;;;-11.27;40.91
74893;BME280;63446;56.272;43.922;2024-02-15T11:21:18;103432.56;;;-11.38;41.49
74893;BME280;63446;56.272;43.922;2024-02-15T11:23:45;103435.19;;;-11.40;42.08
74893;BME280;63446;56.272;43.922;2024-02-15T11:26:43;103452.47;;;-11.48;41.79
74893;BME280;63446;56.272;43.922;2024-02-15T11:29:51;103441.50;;;-11.51;42.27
74893;BME280;63446;56.272;43.922;2024-02-15T11:32:46;103438.91;;;-11.50;42.54
74893;BME280;63446;56.272;43.922;2024-02-15T11:35:16;103438.03;;;-11.49;42.75
74893;BME280;63446;56.272;43.922;2024-02-15T11:40:23;103454.69;;;-11.39;42.93
74893;BME280;63446;56.272;43.922;2024-02-15T11:42:51;103437.78;;;-11.41;42.65
74893;BME280;63446;56.272;43.922;2024-02-15T11:45:18;103445.31;;;-11.38;42.78
74893;BME280;63446;56.272;43.922;2024-02-15T11:47:50;103432.56;;;-11.38;42.69
74893;BME280;63446;56.272;43.922;2024-02-15T11:50:18;103436.09;;;-11.42;42.43
74893;BME280;63446;56.272;43.922;2024-02-15T11:52:45;103437.09;;;-11.46;42.14
74893;BME280;63446;56.272;43.922;2024-02-15T11:55:18;103451.56;;;-11.47;42.45
74893;BME280;63446;56.272;43.922;2024-02-15T11:58:00;103445.69;;;-11.49;42.55
74893;BME280;63446;56.272;43.922;2024-02-15T12:00:37;103438.88;;;-11.48;42.88
74893;BME280;63446;56.272;43.922;2024-02-15T12:03:23;103436.69;;;-11.61;42.24
74893;BME280;63446;56.272;43.922;2024-02-15T12:06:08;103424.13;;;-11.67;42.42
74893;BME280;63446;56.272;43.922;2024-02-15T12:08:53;103423.59;;;-11.76;42.41
74893;BME280;63446;56.272;43.922;2024-02-15T12:11:39;103411.97;;;-11.84;42.48
74893;BME280;63446;56.272;43.922;2024-02-15T12:14:25;103437.72;;;-11.93;42.44
74893;BME280;63446;56.272;43.922;2024-02-15T12:17:11;103430.81;;;-11.89;42.93
74893;BME280;63446;56.272;43.922;2024-02-15T12:19:57;103420.63;;;-11.89;42.87
74893;BME280;63446;56.272;43.922;2024-02-15T12:22:47;103423.31;;;-11.94;43.04
74893;BME280;63446;56.272;43.922;2024-02-15T12:25:16;103455.66;;;-11.96;42.85
74893;BME280;63446;56.272;43.922;2024-02-15T12:27:52;103434.59;;;-12.01;42.85
74893;BME280;63446;56.272;43.922;2024-02-15T12:30:19;103426.28;;;-12.08;43.02
74893;BME280;63446;56.272;43.922;2024-02-15T12:32:51;103421.25;;;-12.11;43.17
74893;BME280;63446;56.272;43.922;2024-02-15T12:35:20;103416.06;;;-12.08;43.26
74893;BME280;63446;56.272;43.922;2024-02-15T12:40:35;103423.81;;;-12.11;43.37
74893;BME280;63446;56.272;43.922;2024-02-15T12:43:08;103439.22;;;-12.14;43.35
74893;BME280;63446;56.272;43.922;2024-02-15T12:45:39;103425.53;;;-12.11;43.55
74893;BME280;63446;56.272;43.922;2024-02-15T12:48:07;103434.75;;;-12.07;43.68
74893;BME280;63446;56.272;43.922;2024-02-15T12:50:33;103451.81;;;-12.09;43.73
74893;BME280;63446;56.272;43.922;2024-02-15T12:53:00;103460.38;;;-12.10;43.53
74893;BME280;63446;56.272;43.922;2024-02-15T12:55:29;103463.22;;;-12.21;43.37